This is the latest recevied weather packets stored in our database for station/object KE8KMM. If no packets are shown the sender has not sent any weather packets the latest 10 day(s).
| Time | Temp. | Humidity | Pressure | Rain* | Wind** | Luminosity | Snow |
|---|---|---|---|---|---|---|---|
| 1778024102 | 17.78° C | 82% | 1005.8 hPa | 0 mm | - | 3 W/m² | - |
| 1778023800 | 18.89° C | 78% | 1006 hPa | 0 mm | - | 3 W/m² | - |
| 1778023498 | 21.11° C | 67% | 1005.7 hPa | 0 mm | - | 8 W/m² | - |
| 1778023195 | 21.11° C | 64% | 1005.9 hPa | 0 mm | - | 11 W/m² | - |
| 1778022892 | 21.11° C | 63% | 1005.5 hPa | 0 mm | - | 12 W/m² | - |
| 1778022590 | 21.11° C | 63% | 1005.5 hPa | 0 mm | - | 12 W/m² | - |
| 1778022287 | 21.11° C | 62% | 1005.5 hPa | 0 mm | - | 13 W/m² | - |
| 1778021983 | 21.11° C | 62% | 1005.4 hPa | 0 mm | - | 22 W/m² | - |
| 1778021681 | 21.67° C | 62% | 1005.7 hPa | 0 mm | - | 35 W/m² | - |
| 1778021377 | 21.67° C | 62% | 1005.7 hPa | 0 mm | - | 52 W/m² | - |
| 1778021074 | 21.67° C | 62% | 1005.6 hPa | 0 mm | - | 66 W/m² | - |
| 1778020771 | 21.67° C | 61% | 1005.8 hPa | 0 mm | - | 71 W/m² | - |
| 1778020468 | 21.67° C | 62% | 1005.3 hPa | 0 mm | - | 88 W/m² | - |
| 1778020164 | 21.67° C | 61% | 1005.4 hPa | 0 mm | - | 114 W/m² | - |
| 1778019860 | 21.67° C | 62% | 1005.5 hPa | 0 mm | - | 103 W/m² | - |
| 1778019556 | 21.67° C | 62% | 1005.5 hPa | 0 mm | - | 75 W/m² | - |
| 1778019254 | 22.22° C | 62% | 1005.3 hPa | 0 mm | - | 95 W/m² | - |
| 1778018951 | 22.22° C | 62% | 1005.4 hPa | 0 mm | - | 115 W/m² | - |
| 1778018648 | 22.22° C | 62% | 1005.5 hPa | 0 mm | - | 158 W/m² | - |
| 1778018345 | 22.22° C | 63% | 1005.4 hPa | 0 mm | - | 197 W/m² | - |
| 1778018043 | 22.22° C | 62% | 1005.6 hPa | 0 mm | - | 199 W/m² | - |
| 1778017741 | 21.67° C | 62% | 1005.3 hPa | 0 mm | - | 203 W/m² | - |
| 1778017438 | 21.67° C | 64% | 1005.6 hPa | 0 mm | - | 123 W/m² | - |
| 1778017135 | 21.67° C | 64% | 1005.6 hPa | 0 mm | - | 119 W/m² | - |
| 1778016833 | 21.67° C | 64% | 1005.2 hPa | 0 mm | - | 123 W/m² | - |
* Rain latest hour (hover to see other rain measurements)
** Current wind speed in m/s (hover to see current wind gust speed)